Time;durP1;ratioP1;P1;durP2;ratioP2;P2;SDS_P1;SDS_P2;PMS_P1;PMS_P2;Temp;Humidity;BMP_temperature;BMP_pressure;BME280_temperature;BME280_humidity;BME280_pressure;Samples;Min_cycle;Max_cycle;Signal;HPM_P1;HPM_P2
2023/03/15 00:00:49;;;;;;;;;;;6.00;57.80;;;;;;4989521;28;19981;-93
2023/03/15 00:03:14;;;;;;;;;;;6.10;58.00;;;;;;4990381;28;19921;-90
2023/03/15 00:05:41;;;;;;;;;;;6.10;57.70;;;;;;4990844;28;19921;-90
2023/03/15 00:08:06;;;;;;;;;;;6.10;57.60;;;;;;4989812;28;19951;-90
2023/03/15 00:10:32;;;;;;;;;;;6.10;58.00;;;;;;4990777;28;19917;-89
2023/03/15 00:12:57;;;;;;;;;;;6.10;58.00;;;;;;4991894;28;20001;-91
2023/03/15 00:15:24;;;;;;;;;;;6.20;58.10;;;;;;4988973;28;19933;-89
2023/03/15 00:17:50;;;;;;;;;;;6.20;58.10;;;;;;4990599;28;19964;-91
2023/03/15 00:20:17;;;;;;;;;;;6.20;58.20;;;;;;4989307;28;20408;-91
2023/03/15 00:22:43;;;;;;;;;;;6.30;58.00;;;;;;4992005;28;19914;-89
2023/03/15 00:25:09;;;;;;;;;;;6.30;57.90;;;;;;4991241;28;20451;-89
2023/03/15 00:27:34;;;;;;;;;;;6.40;57.90;;;;;;4989945;28;19977;-89
2023/03/15 00:30:00;;;;;;;;;;;6.40;58.00;;;;;;4990911;28;19910;-89
2023/03/15 00:32:26;;;;;;;;;;;6.50;58.40;;;;;;4988004;28;19927;-90
2023/03/15 00:34:53;;;;;;;;;;;6.60;58.60;;;;;;4990560;28;19914;-89
2023/03/15 00:37:19;;;;;;;;;;;6.70;58.60;;;;;;4989545;28;19917;-88
2023/03/15 00:39:48;;;;;;;;;;;6.80;58.80;;;;;;4987963;28;19913;-89
2023/03/15 00:42:14;;;;;;;;;;;6.80;58.70;;;;;;4989703;28;19964;-89
2023/03/15 00:44:46;;;;;;;;;;;6.90;58.70;;;;;;4990567;28;19910;-93
2023/03/15 00:47:12;;;;;;;;;;;7.00;58.60;;;;;;4989693;28;19925;-88
2023/03/15 00:49:39;;;;;;;;;;;7.10;58.60;;;;;;4988972;28;20033;-92
2023/03/15 00:52:04;;;;;;;;;;;7.20;58.60;;;;;;4991380;28;20333;-92
2023/03/15 00:54:32;;;;;;;;;;;7.30;58.60;;;;;;4990424;28;19910;-89
2023/03/15 00:56:58;;;;;;;;;;;7.30;58.50;;;;;;4992620;28;20370;-89
2023/03/15 00:59:24;;;;;;;;;;;7.50;58.50;;;;;;4991886;28;20353;-92
2023/03/15 01:01:50;;;;;;;;;;;7.60;58.50;;;;;;4992199;28;19929;-90
2023/03/15 01:04:15;;;;;;;;;;;7.70;58.50;;;;;;4989485;28;19957;-91
2023/03/15 01:06:41;;;;;;;;;;;7.80;58.50;;;;;;4988184;28;19925;-88
2023/03/15 01:09:07;;;;;;;;;;;7.90;58.40;;;;;;4989982;28;20484;-91
2023/03/15 01:11:33;;;;;;;;;;;7.90;58.30;;;;;;4990040;28;20036;-91
2023/03/15 01:13:59;;;;;;;;;;;8.00;58.10;;;;;;4989666;28;19957;-89
2023/03/15 01:16:25;;;;;;;;;;;8.10;58.10;;;;;;4988920;28;19972;-89
2023/03/15 01:18:51;;;;;;;;;;;8.20;58.30;;;;;;4993286;28;19910;-92
2023/03/15 01:21:17;;;;;;;;;;;8.20;58.20;;;;;;4993392;28;19987;-91
2023/03/15 01:23:42;;;;;;;;;;;8.20;58.00;;;;;;4992108;28;19968;-89
2023/03/15 01:26:10;;;;;;;;;;;8.20;57.80;;;;;;4992574;28;19918;-89
2023/03/15 01:28:35;;;;;;;;;;;8.20;57.60;;;;;;4993308;28;20004;-88
2023/03/15 01:31:01;;;;;;;;;;;8.30;57.40;;;;;;4992301;28;19969;-92
2023/03/15 01:33:27;;;;;;;;;;;8.30;57.40;;;;;;4993501;28;20008;-90
2023/03/15 01:36:00;;;;;;;;;;;8.40;57.70;;;;;;4993772;28;20013;-91
2023/03/15 01:38:26;;;;;;;;;;;8.40;57.70;;;;;;4993312;28;19909;-93
2023/03/15 01:40:51;;;;;;;;;;;8.40;57.90;;;;;;4993578;28;19976;-91
2023/03/15 01:43:18;;;;;;;;;;;8.50;57.70;;;;;;4991835;28;19910;-90
2023/03/15 01:46:02;;;;;;;;;;;8.50;57.80;;;;;;4993434;28;20144;-88
2023/03/15 01:48:32;;;;;;;;;;;8.40;58.00;;;;;;4992393;28;19909;-89
2023/03/15 01:50:59;;;;;;;;;;;8.40;58.20;;;;;;4992883;28;19973;-91
2023/03/15 01:53:26;;;;;;;;;;;8.40;58.30;;;;;;4990609;28;19964;-89
2023/03/15 01:55:52;;;;;;;;;;;8.30;58.40;;;;;;4989630;28;19945;-88
2023/03/15 01:58:18;;;;;;;;;;;8.40;58.50;;;;;;4992548;28;19913;-90
2023/03/15 02:00:44;;;;;;;;;;;8.30;58.40;;;;;;4993990;28;19929;-89
2023/03/15 02:03:13;;;;;;;;;;;8.20;58.50;;;;;;4993155;28;19918;-90
2023/03/15 02:05:44;;;;;;;;;;;8.20;58.60;;;;;;4992970;28;20304;-89
2023/03/15 02:08:10;;;;;;;;;;;8.20;58.70;;;;;;4990795;28;19918;-91
2023/03/15 02:10:39;;;;;;;;;;;8.10;58.90;;;;;;4993723;28;19918;-89
2023/03/15 02:13:05;;;;;;;;;;;8.10;59.10;;;;;;4993685;28;20416;-89
2023/03/15 02:15:31;;;;;;;;;;;8.10;59.30;;;;;;4991441;28;19918;-91
2023/03/15 02:17:57;;;;;;;;;;;8.10;59.50;;;;;;4991890;28;20384;-89
2023/03/15 02:20:29;;;;;;;;;;;8.10;59.70;;;;;;4993444;28;19922;-90
2023/03/15 02:23:04;;;;;;;;;;;8.10;59.90;;;;;;4992988;28;20407;-90
2023/03/15 02:25:42;;;;;;;;;;;8.10;60.10;;;;;;4991370;28;19918;-90
2023/03/15 02:28:09;;;;;;;;;;;8.10;60.30;;;;;;4972795;28;19929;-91
2023/03/15 02:30:34;;;;;;;;;;;8.20;60.50;;;;;;4972223;28;19915;-88
2023/03/15 02:33:01;;;;;;;;;;;8.20;60.70;;;;;;4972624;28;19952;-88
2023/03/15 02:35:29;;;;;;;;;;;8.20;60.80;;;;;;4971636;28;20357;-90
2023/03/15 02:37:55;;;;;;;;;;;8.20;60.80;;;;;;4973067;28;19925;-89
2023/03/15 02:40:21;;;;;;;;;;;8.30;60.90;;;;;;4973779;28;19923;-89
2023/03/15 02:42:49;;;;;;;;;;;8.30;61.00;;;;;;4972953;28;19969;-90
2023/03/15 02:45:15;;;;;;;;;;;8.30;61.00;;;;;;4971516;28;20832;-90
2023/03/15 02:47:41;;;;;;;;;;;8.30;61.00;;;;;;4972943;28;20350;-90
2023/03/15 02:50:07;;;;;;;;;;;8.40;61.10;;;;;;4973218;28;20444;-89
2023/03/15 02:52:32;;;;;;;;;;;8.40;61.20;;;;;;4971709;28;19918;-91
2023/03/15 02:54:58;;;;;;;;;;;8.40;61.30;;;;;;4971553;28;20203;-92
2023/03/15 02:57:24;;;;;;;;;;;8.40;61.10;;;;;;4973677;28;20009;-89
2023/03/15 02:59:49;;;;;;;;;;;8.40;61.10;;;;;;4979978;28;20005;-89
2023/03/15 03:02:15;;;;;;;;;;;8.50;61.10;;;;;;4991955;28;19914;-90
2023/03/15 03:04:41;;;;;;;;;;;8.40;61.00;;;;;;4990522;28;19920;-89
2023/03/15 03:07:06;;;;;;;;;;;8.40;61.00;;;;;;4992380;28;19918;-89
2023/03/15 03:09:32;;;;;;;;;;;8.40;61.10;;;;;;4990643;28;19924;-91
2023/03/15 03:11:57;;;;;;;;;;;8.40;61.20;;;;;;4992861;28;19918;-91
2023/03/15 03:14:23;;;;;;;;;;;8.40;61.30;;;;;;4990976;28;19933;-90
2023/03/15 03:16:50;;;;;;;;;;;8.40;61.40;;;;;;4993915;28;20016;-89
2023/03/15 03:19:15;;;;;;;;;;;8.50;61.30;;;;;;4992344;28;20269;-89
2023/03/15 03:21:44;;;;;;;;;;;8.50;61.40;;;;;;4990306;28;19933;-89
2023/03/15 03:24:10;;;;;;;;;;;8.50;61.40;;;;;;4991612;28;19921;-90
2023/03/15 03:26:36;;;;;;;;;;;8.50;61.40;;;;;;4989703;28;19918;-89
2023/03/15 03:29:04;;;;;;;;;;;8.50;61.40;;;;;;4991141;28;19909;-87
2023/03/15 03:31:32;;;;;;;;;;;8.50;61.50;;;;;;4990590;28;19918;-89
2023/03/15 03:33:58;;;;;;;;;;;8.50;61.40;;;;;;4990115;28;19924;-89
2023/03/15 03:36:23;;;;;;;;;;;8.50;61.50;;;;;;4991557;28;20020;-90
2023/03/15 03:38:50;;;;;;;;;;;8.50;61.40;;;;;;4991393;28;20004;-89
2023/03/15 03:41:16;;;;;;;;;;;8.50;61.60;;;;;;4992391;28;19926;-90
2023/03/15 03:43:42;;;;;;;;;;;8.60;61.50;;;;;;4994739;28;20005;-90
2023/03/15 03:46:08;;;;;;;;;;;8.60;61.40;;;;;;4990977;28;19926;-92
2023/03/15 03:48:40;;;;;;;;;;;8.60;61.50;;;;;;4991314;28;19917;-92
2023/03/15 03:51:06;;;;;;;;;;;8.60;61.50;;;;;;4991110;28;19925;-89
2023/03/15 03:53:31;;;;;;;;;;;8.60;61.30;;;;;;4990482;28;19910;-92
2023/03/15 03:55:57;;;;;;;;;;;8.60;61.30;;;;;;4989455;28;19953;-90
2023/03/15 03:58:22;;;;;;;;;;;8.60;61.30;;;;;;4990845;28;20332;-92
2023/03/15 04:00:53;;;;;;;;;;;8.60;61.40;;;;;;4990444;28;19925;-91
2023/03/15 04:03:19;;;;;;;;;;;8.60;61.40;;;;;;4989771;28;20458;-90
2023/03/15 04:05:45;;;;;;;;;;;8.60;61.50;;;;;;4990566;28;19918;-92
2023/03/15 04:08:10;;;;;;;;;;;8.60;61.50;;;;;;4989276;28;20246;-92
2023/03/15 04:10:36;;;;;;;;;;;8.60;61.50;;;;;;4989636;28;20379;-89
2023/03/15 04:13:02;;;;;;;;;;;8.60;61.40;;;;;;5005893;28;19910;-92
2023/03/15 04:15:27;;;;;;;;;;;8.60;61.50;;;;;;4989613;28;19951;-89
2023/03/15 04:17:55;;;;;;;;;;;8.60;61.50;;;;;;4990535;28;20353;-90
2023/03/15 04:20:22;;;;;;;;;;;8.60;61.50;;;;;;4990204;28;20691;-89
2023/03/15 04:22:50;;;;;;;;;;;8.60;61.40;;;;;;4987347;28;20400;-90
2023/03/15 04:25:16;;;;;;;;;;;8.60;61.40;;;;;;4990200;28;19910;-92
2023/03/15 04:27:42;;;;;;;;;;;8.60;61.30;;;;;;4990774;28;20357;-92
2023/03/15 04:30:08;;;;;;;;;;;8.60;61.20;;;;;;4989095;28;19914;-91
2023/03/15 04:32:33;;;;;;;;;;;8.50;61.00;;;;;;4992612;28;20339;-89
2023/03/15 04:35:00;;;;;;;;;;;8.50;60.70;;;;;;4990685;28;20288;-89
2023/03/15 04:37:26;;;;;;;;;;;8.30;60.40;;;;;;4990539;28;20017;-90
2023/03/15 04:39:53;;;;;;;;;;;8.20;60.30;;;;;;4989146;28;20013;-89
2023/03/15 04:42:19;;;;;;;;;;;8.20;60.00;;;;;;4988311;28;20671;-91
2023/03/15 04:44:45;;;;;;;;;;;8.10;60.30;;;;;;4987582;28;19914;-88
2023/03/15 04:47:11;;;;;;;;;;;8.00;60.60;;;;;;4984817;28;20004;-91
2023/03/15 04:49:36;;;;;;;;;;;8.10;60.80;;;;;;4989414;28;20629;-90
2023/03/15 04:52:02;;;;;;;;;;;8.10;61.10;;;;;;4990519;28;19928;-87
2023/03/15 04:54:28;;;;;;;;;;;8.20;61.30;;;;;;4992193;28;19964;-87
2023/03/15 04:56:54;;;;;;;;;;;8.20;61.40;;;;;;4992491;28;20381;-89
2023/03/15 04:59:19;;;;;;;;;;;8.30;61.60;;;;;;4992947;28;19917;-90
2023/03/15 05:01:45;;;;;;;;;;;8.30;61.50;;;;;;4992149;28;20341;-90
2023/03/15 05:04:12;;;;;;;;;;;8.40;61.60;;;;;;4992646;28;19968;-89
2023/03/15 05:06:38;;;;;;;;;;;8.40;61.70;;;;;;4992117;28;19922;-89
2023/03/15 05:09:03;;;;;;;;;;;8.50;61.60;;;;;;4993977;28;19917;-89
2023/03/15 05:11:29;;;;;;;;;;;8.60;61.50;;;;;;4991742;28;19918;-90
2023/03/15 05:13:54;;;;;;;;;;;8.50;61.30;;;;;;4991629;28;19910;-89
2023/03/15 05:16:24;;;;;;;;;;;8.50;61.20;;;;;;4991756;28;19977;-89
2023/03/15 05:18:50;;;;;;;;;;;8.50;61.30;;;;;;4991989;28;20007;-90
2023/03/15 05:21:15;;;;;;;;;;;8.50;61.40;;;;;;4993131;28;19957;-89
2023/03/15 05:23:41;;;;;;;;;;;8.60;61.40;;;;;;4991629;28;19917;-89
2023/03/15 05:26:07;;;;;;;;;;;8.60;61.40;;;;;;4991385;28;19921;-91
2023/03/15 05:28:32;;;;;;;;;;;8.60;61.40;;;;;;4993661;28;19913;-89
2023/03/15 05:30:58;;;;;;;;;;;8.60;61.30;;;;;;4992907;28;20013;-89
2023/03/15 05:33:23;;;;;;;;;;;8.60;61.40;;;;;;4992711;28;19909;-88
2023/03/15 05:35:49;;;;;;;;;;;8.60;61.30;;;;;;4990654;28;19918;-89
2023/03/15 05:38:15;;;;;;;;;;;8.70;61.30;;;;;;4990885;28;20412;-92
2023/03/15 05:40:42;;;;;;;;;;;8.60;61.30;;;;;;4991615;28;19940;-90
2023/03/15 05:43:08;;;;;;;;;;;8.60;61.30;;;;;;4990284;28;20004;-90
2023/03/15 05:45:33;;;;;;;;;;;8.60;61.30;;;;;;4991082;28;20345;-88
2023/03/15 05:47:59;;;;;;;;;;;8.70;61.30;;;;;;4990905;28;19914;-90
2023/03/15 05:50:26;;;;;;;;;;;8.60;61.30;;;;;;4990948;28;19917;-91
2023/03/15 05:52:52;;;;;;;;;;;8.70;61.40;;;;;;5008084;28;20404;-90
2023/03/15 05:55:18;;;;;;;;;;;8.70;61.40;;;;;;4988768;28;20316;-89
2023/03/15 05:57:44;;;;;;;;;;;8.70;61.30;;;;;;4988652;28;20380;-90
2023/03/15 06:00:09;;;;;;;;;;;8.70;61.30;;;;;;4989356;28;20032;-90
2023/03/15 06:02:35;;;;;;;;;;;8.70;61.40;;;;;;4991279;28;19914;-92
2023/03/15 06:05:01;;;;;;;;;;;8.80;61.40;;;;;;4988669;28;19918;-92
2023/03/15 06:07:27;;;;;;;;;;;8.70;61.50;;;;;;4989428;28;19920;-89
2023/03/15 06:09:53;;;;;;;;;;;8.80;61.40;;;;;;4991396;28;20025;-89
2023/03/15 06:12:18;;;;;;;;;;;8.80;61.40;;;;;;4990309;28;19922;-89
2023/03/15 06:14:47;;;;;;;;;;;8.80;61.30;;;;;;4990650;28;19917;-90
2023/03/15 06:17:13;;;;;;;;;;;8.80;61.30;;;;;;4990599;28;19926;-90
2023/03/15 06:19:39;;;;;;;;;;;8.90;61.40;;;;;;4990807;28;19910;-91
2023/03/15 06:22:05;;;;;;;;;;;8.90;61.40;;;;;;5007290;28;20361;-91
2023/03/15 06:24:31;;;;;;;;;;;8.90;61.30;;;;;;4992848;28;19929;-91
2023/03/15 06:26:57;;;;;;;;;;;8.90;61.40;;;;;;4992974;28;19925;-90
2023/03/15 06:29:22;;;;;;;;;;;9.00;61.40;;;;;;4990552;28;19926;-92
2023/03/15 06:31:48;;;;;;;;;;;9.00;61.50;;;;;;4990310;28;19918;-88
2023/03/15 06:34:14;;;;;;;;;;;9.00;61.40;;;;;;4988340;28;19965;-90
2023/03/15 06:36:41;;;;;;;;;;;9.10;61.50;;;;;;5005751;28;19925;-90
2023/03/15 06:39:07;;;;;;;;;;;9.10;61.50;;;;;;4987180;28;20472;-90
2023/03/15 06:41:32;;;;;;;;;;;9.10;61.70;;;;;;4989897;28;20024;-90
2023/03/15 06:43:58;;;;;;;;;;;9.10;61.70;;;;;;4988681;28;19914;-89
2023/03/15 06:46:24;;;;;;;;;;;9.10;61.60;;;;;;4989120;28;20057;-91
2023/03/15 06:48:50;;;;;;;;;;;9.00;61.20;;;;;;4987316;28;19914;-89
2023/03/15 06:51:15;;;;;;;;;;;8.90;61.20;;;;;;4985796;28;19949;-90
2023/03/15 06:53:41;;;;;;;;;;;9.00;62.50;;;;;;4989600;28;19951;-89
2023/03/15 06:56:06;;;;;;;;;;;9.40;64.30;;;;;;4987735;28;19918;-89
2023/03/15 06:58:32;;;;;;;;;;;9.80;65.20;;;;;;4986855;28;19922;-91
2023/03/15 07:00:58;;;;;;;;;;;10.20;66.10;;;;;;4970667;28;19969;-89
2023/03/15 07:03:24;;;;;;;;;;;10.80;66.80;;;;;;4983721;28;20054;-88
2023/03/15 07:05:53;;;;;;;;;;;11.40;67.50;;;;;;4987405;28;20335;-89
2023/03/15 07:08:21;;;;;;;;;;;12.00;67.50;;;;;;4989268;28;19914;-90
2023/03/15 07:10:48;;;;;;;;;;;12.70;67.40;;;;;;4990871;28;19964;-91
2023/03/15 07:13:14;;;;;;;;;;;13.20;67.20;;;;;;4989063;28;20408;-89
2023/03/15 07:15:39;;;;;;;;;;;13.80;66.30;;;;;;4989575;28;20040;-89
2023/03/15 07:18:05;;;;;;;;;;;14.30;66.20;;;;;;4989616;28;19913;-90
2023/03/15 07:20:31;;;;;;;;;;;14.90;66.00;;;;;;4988633;28;20312;-91
2023/03/15 07:22:56;;;;;;;;;;;15.30;64.50;;;;;;4988906;28;19972;-90
2023/03/15 07:25:22;;;;;;;;;;;15.50;62.70;;;;;;4989379;28;19922;-91
2023/03/15 07:27:52;;;;;;;;;;;15.70;62.70;;;;;;4989764;28;19956;-91
2023/03/15 07:30:18;;;;;;;;;;;15.80;62.10;;;;;;4988446;28;20008;-92
2023/03/15 07:32:44;;;;;;;;;;;15.70;61.40;;;;;;4989076;28;19957;-91
2023/03/15 07:35:10;;;;;;;;;;;15.80;62.20;;;;;;4989245;28;19953;-89
2023/03/15 07:37:36;;;;;;;;;;;16.00;63.10;;;;;;4988797;28;19969;-92
2023/03/15 07:40:08;;;;;;;;;;;16.40;63.30;;;;;;4989493;28;19992;-92
2023/03/15 07:42:34;;;;;;;;;;;16.80;63.90;;;;;;4990748;28;19914;-91
2023/03/15 07:45:01;;;;;;;;;;;17.30;63.90;;;;;;4988232;28;20408;-89
2023/03/15 07:47:27;;;;;;;;;;;17.80;63.30;;;;;;4991395;28;19918;-90
2023/03/15 07:49:53;;;;;;;;;;;18.00;61.40;;;;;;4991405;28;20360;-89
2023/03/15 07:52:19;;;;;;;;;;;18.00;61.50;;;;;;4991040;28;19940;-90
2023/03/15 07:54:44;;;;;;;;;;;18.30;62.10;;;;;;4991731;28;19917;-88
2023/03/15 07:57:10;;;;;;;;;;;18.50;61.40;;;;;;4991440;28;19967;-89
2023/03/15 07:59:36;;;;;;;;;;;18.40;60.80;;;;;;4990918;28;19921;-89
2023/03/15 08:02:01;;;;;;;;;;;18.50;61.90;;;;;;4993848;28;19926;-92
2023/03/15 08:04:27;;;;;;;;;;;18.90;62.70;;;;;;4987170;28;20025;-91
2023/03/15 08:06:53;;;;;;;;;;;19.20;60.30;;;;;;4988728;28;20361;-89
2023/03/15 08:09:18;;;;;;;;;;;19.20;60.40;;;;;;4989233;28;19914;-90
2023/03/15 08:11:44;;;;;;;;;;;19.30;60.50;;;;;;4989011;28;20320;-93
2023/03/15 08:14:13;;;;;;;;;;;19.30;59.20;;;;;;4990393;28;20041;-94
2023/03/15 08:16:38;;;;;;;;;;;19.00;58.70;;;;;;4985827;28;20009;-90
2023/03/15 08:19:04;;;;;;;;;;;18.70;58.30;;;;;;4989349;28;20001;-89
2023/03/15 08:21:32;;;;;;;;;;;18.40;58.20;;;;;;4986880;28;20581;-92
2023/03/15 08:23:58;;;;;;;;;;;18.10;57.70;;;;;;4987610;28;20000;-90
2023/03/15 08:26:24;;;;;;;;;;;17.80;57.00;;;;;;4989062;28;20409;-90
2023/03/15 08:28:49;;;;;;;;;;;17.40;58.10;;;;;;4990447;28;19914;-89
2023/03/15 08:31:15;;;;;;;;;;;17.70;61.40;;;;;;4994077;28;20033;-89
2023/03/15 08:33:41;;;;;;;;;;;18.20;62.90;;;;;;4992687;28;19914;-91
2023/03/15 08:36:07;;;;;;;;;;;18.70;62.50;;;;;;5004454;28;20059;-92
2023/03/15 08:38:33;;;;;;;;;;;19.20;62.10;;;;;;5002543;28;19972;-93
2023/03/15 08:40:59;;;;;;;;;;;19.60;61.20;;;;;;4996761;28;19926;-89
2023/03/15 08:43:25;;;;;;;;;;;20.20;61.40;;;;;;4995463;28;20261;-88
2023/03/15 08:45:51;;;;;;;;;;;20.40;60.10;;;;;;4990710;28;19922;-91
2023/03/15 08:48:16;;;;;;;;;;;20.80;60.80;;;;;;4994931;28;20354;-90
2023/03/15 08:50:45;;;;;;;;;;;21.30;59.50;;;;;;5011135;28;19925;-89
2023/03/15 08:53:11;;;;;;;;;;;21.70;58.60;;;;;;4985844;28;19924;-93
2023/03/15 08:55:37;;;;;;;;;;;22.20;58.30;;;;;;4993700;28;19944;-89
2023/03/15 08:58:03;;;;;;;;;;;22.50;55.80;;;;;;4994075;28;19949;-90
2023/03/15 09:00:29;;;;;;;;;;;22.50;54.40;;;;;;5000779;28;20385;-91
2023/03/15 09:02:56;;;;;;;;;;;22.50;55.10;;;;;;4995251;28;19949;-90
2023/03/15 09:05:23;;;;;;;;;;;22.70;55.70;;;;;;5001331;28;19926;-92
2023/03/15 09:07:51;;;;;;;;;;;23.00;54.90;;;;;;4991389;28;20277;-90
2023/03/15 09:10:18;;;;;;;;;;;23.30;54.40;;;;;;4998511;28;19984;-94
2023/03/15 09:12:45;;;;;;;;;;;23.60;54.20;;;;;;4997552;28;19918;-94
2023/03/15 09:15:11;;;;;;;;;;;23.80;50.30;;;;;;5016437;28;20359;-91
2023/03/15 09:17:37;;;;;;;;;;;23.40;49.10;;;;;;5003103;28;19918;-94
2023/03/15 09:20:13;;;;;;;;;;;23.00;49.20;;;;;;5004563;28;20358;-90
2023/03/15 09:22:39;;;;;;;;;;;22.70;49.20;;;;;;5002642;28;20305;-94
2023/03/15 09:25:06;;;;;;;;;;;22.60;53.20;;;;;;5000441;28;19937;-90
2023/03/15 09:27:32;;;;;;;;;;;23.00;54.40;;;;;;4999735;28;19914;-91
2023/03/15 09:29:57;;;;;;;;;;;23.50;54.40;;;;;;4998172;28;19983;-93
2023/03/15 09:32:24;;;;;;;;;;;24.00;54.30;;;;;;5002832;28;19921;-92
2023/03/15 09:34:50;;;;;;;;;;;24.40;53.60;;;;;;4991975;28;19925;-92
2023/03/15 09:37:15;;;;;;;;;;;24.80;50.50;;;;;;4994020;28;19922;-90
2023/03/15 09:39:44;;;;;;;;;;;24.90;47.80;;;;;;4992155;28;19957;-91
2023/03/15 09:42:20;;;;;;;;;;;25.00;48.00;;;;;;4997488;28;19926;-90
2023/03/15 09:44:52;;;;;;;;;;;25.30;46.00;;;;;;4994698;28;19917;-93
2023/03/15 09:47:30;;;;;;;;;;;25.70;43.10;;;;;;5000587;28;20641;-90
2023/03/15 09:50:14;;;;;;;;;;;25.90;42.70;;;;;;4980913;28;19906;-88
2023/03/15 09:52:43;;;;;;;;;;;26.00;44.50;;;;;;4997702;28;19918;-93
2023/03/15 09:55:14;;;;;;;;;;;26.00;43.40;;;;;;4997803;28;19922;-92
2023/03/15 09:57:45;;;;;;;;;;;25.80;40.20;;;;;;5001371;28;19914;-91
2023/03/15 10:00:18;;;;;;;;;;;25.10;40.20;;;;;;5000463;28;20013;-90
2023/03/15 10:03:08;;;;;;;;;;;24.60;41.00;;;;;;4991755;28;19922;-91
2023/03/15 10:05:37;;;;;;;;;;;24.20;40.50;;;;;;5010228;28;19922;-92
2023/03/15 10:08:08;;;;;;;;;;;24.10;40.60;;;;;;5011630;28;19918;-89
2023/03/15 10:10:35;;;;;;;;;;;24.10;40.20;;;;;;4993278;28;20021;-92
2023/03/15 10:13:22;;;;;;;;;;;23.80;39.60;;;;;;4996729;28;19968;-89
2023/03/15 10:16:03;;;;;;;;;;;23.50;39.50;;;;;;5009757;28;19934;-89
2023/03/15 10:18:41;;;;;;;;;;;22.90;39.30;;;;;;4994725;28;19917;-89
2023/03/15 10:21:12;;;;;;;;;;;22.50;38.90;;;;;;5001043;28;19926;-91
2023/03/15 10:23:50;;;;;;;;;;;22.30;40.10;;;;;;4995073;28;19939;-94
2023/03/15 10:26:18;;;;;;;;;;;22.50;40.40;;;;;;4985976;28;19949;-93
2023/03/15 10:28:44;;;;;;;;;;;22.90;39.60;;;;;;4990525;28;19940;-92
2023/03/15 10:31:14;;;;;;;;;;;23.30;38.50;;;;;;4996207;28;20531;-90
2023/03/15 10:33:41;;;;;;;;;;;23.80;39.10;;;;;;4996195;28;20008;-89
2023/03/15 10:36:13;;;;;;;;;;;24.20;38.10;;;;;;4992638;28;19918;-93
2023/03/15 10:38:40;;;;;;;;;;;24.60;37.40;;;;;;4992628;28;19917;-91
2023/03/15 10:41:06;;;;;;;;;;;25.20;37.90;;;;;;4993264;28;19971;-91
2023/03/15 10:43:36;;;;;;;;;;;25.60;36.80;;;;;;4990918;28;19957;-91
2023/03/15 10:46:05;;;;;;;;;;;26.00;35.00;;;;;;4995867;28;19924;-91
2023/03/15 10:48:35;;;;;;;;;;;26.40;35.10;;;;;;4992468;28;20396;-93
2023/03/15 10:51:06;;;;;;;;;;;26.90;33.00;;;;;;4988771;28;19917;-92
2023/03/15 10:53:32;;;;;;;;;;;27.20;32.80;;;;;;4982269;28;19921;-90
2023/03/15 10:55:59;;;;;;;;;;;27.70;32.60;;;;;;4981994;28;20017;-89
2023/03/15 10:58:32;;;;;;;;;;;28.20;31.50;;;;;;4991173;28;20258;-89
2023/03/15 11:00:59;;;;;;;;;;;28.50;30.60;;;;;;4989344;28;19972;-89
2023/03/15 11:03:25;;;;;;;;;;;28.80;29.20;;;;;;4988861;28;19922;-90
2023/03/15 11:05:52;;;;;;;;;;;28.90;28.80;;;;;;4989371;28;20004;-90
2023/03/15 11:08:19;;;;;;;;;;;28.90;26.40;;;;;;4989514;28;19913;-90
2023/03/15 11:10:46;;;;;;;;;;;28.80;26.10;;;;;;4989821;28;20276;-90
2023/03/15 11:13:19;;;;;;;;;;;28.90;25.90;;;;;;4989121;28;19924;-91
2023/03/15 11:15:53;;;;;;;;;;;28.50;26.00;;;;;;4988529;28;20284;-91
2023/03/15 11:18:23;;;;;;;;;;;27.80;25.90;;;;;;4989555;28;19914;-93
2023/03/15 11:20:53;;;;;;;;;;;27.50;27.10;;;;;;4991493;28;20412;-91
2023/03/15 11:23:30;;;;;;;;;;;27.40;26.20;;;;;;4989330;28;19914;-90
2023/03/15 11:25:56;;;;;;;;;;;27.30;27.00;;;;;;4985754;28;19918;-89
2023/03/15 11:28:25;;;;;;;;;;;27.20;27.70;;;;;;5006526;28;20012;-93
2023/03/15 11:30:50;;;;;;;;;;;26.80;28.10;;;;;;4991485;28;19972;-90
2023/03/15 11:33:24;;;;;;;;;;;26.20;27.50;;;;;;4989852;28;19914;-90
2023/03/15 11:35:50;;;;;;;;;;;25.80;28.10;;;;;;4989456;28;19989;-92
2023/03/15 11:38:23;;;;;;;;;;;25.30;27.60;;;;;;4990515;28;19997;-92
2023/03/15 11:40:55;;;;;;;;;;;24.80;28.20;;;;;;4989551;28;19962;-90
2023/03/15 11:43:39;;;;;;;;;;;24.80;28.10;;;;;;4989352;28;19918;-91
2023/03/15 11:46:07;;;;;;;;;;;24.90;27.00;;;;;;4981777;28;19925;-90
2023/03/15 11:48:45;;;;;;;;;;;24.80;26.80;;;;;;4989286;28;19956;-93
2023/03/15 11:51:11;;;;;;;;;;;24.70;26.40;;;;;;4992363;28;20812;-93
2023/03/15 11:53:57;;;;;;;;;;;24.60;24.70;;;;;;5003488;28;19922;-93
2023/03/15 11:56:27;;;;;;;;;;;24.10;25.50;;;;;;4974468;28;19980;-91
2023/03/15 11:59:03;;;;;;;;;;;23.60;26.50;;;;;;4988905;28;19924;-90
2023/03/15 12:01:28;;;;;;;;;;;23.80;27.90;;;;;;4986955;28;19936;-90
2023/03/15 12:04:12;;;;;;;;;;;24.50;27.40;;;;;;4990009;28;20009;-90
2023/03/15 12:06:38;;;;;;;;;;;24.80;27.20;;;;;;4988526;28;19928;-92
2023/03/15 12:09:24;;;;;;;;;;;24.50;27.30;;;;;;5004018;28;19913;-89
2023/03/15 12:11:49;;;;;;;;;;;24.30;28.10;;;;;;4988775;28;19918;-92
2023/03/15 12:14:26;;;;;;;;;;;24.60;27.80;;;;;;4989705;28;19917;-89
2023/03/15 12:16:56;;;;;;;;;;;24.10;27.00;;;;;;4987894;28;19926;-91
2023/03/15 12:19:23;;;;;;;;;;;23.40;26.80;;;;;;4991353;28;19936;-90
2023/03/15 12:21:50;;;;;;;;;;;23.20;28.00;;;;;;4990999;28;19934;-91
2023/03/15 12:24:27;;;;;;;;;;;23.50;26.90;;;;;;4989941;28;19928;-89
2023/03/15 12:27:00;;;;;;;;;;;23.70;27.50;;;;;;4990954;28;20242;-93
2023/03/15 12:29:27;;;;;;;;;;;24.20;27.40;;;;;;4989095;28;19917;-90
2023/03/15 12:31:55;;;;;;;;;;;24.70;25.70;;;;;;4993716;28;19968;-91
2023/03/15 12:34:23;;;;;;;;;;;25.10;25.80;;;;;;4989242;28;19921;-90
2023/03/15 12:36:51;;;;;;;;;;;25.30;25.40;;;;;;4988230;28;19918;-89
2023/03/15 12:39:17;;;;;;;;;;;24.90;25.30;;;;;;4981904;28;19941;-91
2023/03/15 12:41:43;;;;;;;;;;;24.50;23.50;;;;;;4992028;28;19930;-90
2023/03/15 12:44:23;;;;;;;;;;;23.80;23.00;;;;;;4991688;28;19953;-93
2023/03/15 12:46:48;;;;;;;;;;;23.60;24.60;;;;;;4989817;28;19982;-91
2023/03/15 12:49:27;;;;;;;;;;;23.70;24.50;;;;;;4988899;28;20266;-89
2023/03/15 12:51:53;;;;;;;;;;;24.10;25.10;;;;;;4995220;28;19926;-92
2023/03/15 12:54:19;;;;;;;;;;;24.70;24.60;;;;;;4980033;28;19918;-92
2023/03/15 12:56:53;;;;;;;;;;;25.10;23.90;;;;;;4991057;28;19924;-94
2023/03/15 12:59:22;;;;;;;;;;;25.30;23.90;;;;;;4995194;28;19914;-91
2023/03/15 13:01:49;;;;;;;;;;;25.50;23.30;;;;;;4994668;28;19926;-92
2023/03/15 13:04:15;;;;;;;;;;;25.70;22.90;;;;;;4996338;28;19952;-91
2023/03/15 13:07:01;;;;;;;;;;;25.60;22.20;;;;;;4990299;28;20289;-89
2023/03/15 13:09:27;;;;;;;;;;;25.70;22.20;;;;;;4993913;28;20029;-91
2023/03/15 13:11:55;;;;;;;;;;;25.80;22.50;;;;;;4997228;28;19969;-94
2023/03/15 13:14:30;;;;;;;;;;;26.00;22.30;;;;;;4995628;28;19920;-89
2023/03/15 13:17:06;;;;;;;;;;;26.00;21.90;;;;;;5003592;28;19928;-94
2023/03/15 13:19:37;;;;;;;;;;;26.00;21.90;;;;;;5002056;28;19989;-91
2023/03/15 13:22:02;;;;;;;;;;;25.90;21.90;;;;;;4997643;28;19984;-89
2023/03/15 13:24:34;;;;;;;;;;;25.80;22.10;;;;;;5014070;28;19977;-93
2023/03/15 13:27:00;;;;;;;;;;;25.20;21.80;;;;;;5002465;28;19917;-94
2023/03/15 13:29:28;;;;;;;;;;;24.30;21.40;;;;;;4995785;28;19925;-91
2023/03/15 13:32:09;;;;;;;;;;;23.60;22.50;;;;;;4994875;28;19925;-90
2023/03/15 13:34:35;;;;;;;;;;;22.80;22.40;;;;;;4995041;28;20060;-90
2023/03/15 13:37:03;;;;;;;;;;;22.00;21.30;;;;;;5001414;28;19965;-94
2023/03/15 13:39:32;;;;;;;;;;;21.20;22.40;;;;;;4995929;28;20385;-93
2023/03/15 13:42:01;;;;;;;;;;;20.50;23.20;;;;;;4995677;28;19965;-89
2023/03/15 13:44:27;;;;;;;;;;;20.00;24.20;;;;;;4992900;28;20000;-89
2023/03/15 13:46:53;;;;;;;;;;;19.50;24.60;;;;;;4990472;28;19922;-92
2023/03/15 13:49:19;;;;;;;;;;;19.00;24.80;;;;;;4993877;28;19918;-89
2023/03/15 13:51:46;;;;;;;;;;;18.60;25.20;;;;;;4995619;28;19918;-89
2023/03/15 13:54:16;;;;;;;;;;;18.30;25.70;;;;;;4996573;28;20280;-89
2023/03/15 13:56:57;;;;;;;;;;;18.00;26.20;;;;;;4989397;28;19918;-90
2023/03/15 13:59:26;;;;;;;;;;;17.80;26.60;;;;;;4988170;28;19918;-89
2023/03/15 14:01:54;;;;;;;;;;;17.50;26.80;;;;;;4995397;28;19930;-89
2023/03/15 14:04:21;;;;;;;;;;;17.40;27.10;;;;;;4989928;28;20454;-90
2023/03/15 14:06:47;;;;;;;;;;;17.30;26.90;;;;;;4989273;28;19918;-91
2023/03/15 14:09:21;;;;;;;;;;;17.10;26.80;;;;;;4996822;28;19914;-91
2023/03/15 14:11:59;;;;;;;;;;;16.90;26.90;;;;;;4994122;28;19978;-93
2023/03/15 14:14:26;;;;;;;;;;;16.70;27.50;;;;;;4993525;28;19918;-90
2023/03/15 14:16:52;;;;;;;;;;;16.40;28.70;;;;;;5001823;28;19976;-92
2023/03/15 14:19:19;;;;;;;;;;;16.20;29.40;;;;;;4996473;28;19914;-89
2023/03/15 14:21:47;;;;;;;;;;;16.00;30.00;;;;;;4978992;28;19929;-87
2023/03/15 14:24:20;;;;;;;;;;;16.00;29.80;;;;;;4998976;28;20296;-90
2023/03/15 14:26:50;;;;;;;;;;;15.90;29.70;;;;;;4998828;28;19922;-90